Time;durP1;ratioP1;P1;durP2;ratioP2;P2;SDS_P1;SDS_P2;PMS_P1;PMS_P2;Temp;Humidity;BMP_temperature;BMP_pressure;BME280_temperature;BME280_humidity;BME280_pressure;Samples;Min_cycle;Max_cycle;Signal;HPM_P1;HPM_P2
2023/08/18 00:01:07;;;;;;;3.22;1.65;;;;;;;;;;4973658;28;20212;-87
2023/08/18 00:03:33;;;;;;;1.90;1.23;;;;;;;;;;4986211;28;20314;-87
2023/08/18 00:05:58;;;;;;;2.85;1.50;;;;;;;;;;4975464;28;21558;-86
2023/08/18 00:08:24;;;;;;;2.88;1.40;;;;;;;;;;4968144;28;20282;-85
2023/08/18 00:10:49;;;;;;;2.45;1.27;;;;;;;;;;4976724;28;20216;-87
2023/08/18 00:13:15;;;;;;;2.08;1.30;;;;;;;;;;4991790;28;20651;-86
2023/08/18 00:15:41;;;;;;;6.30;1.30;;;;;;;;;;5013219;28;20250;-86
2023/08/18 00:18:08;;;;;;;4.20;1.42;;;;;;;;;;4982836;28;20241;-87
2023/08/18 00:20:33;;;;;;;2.75;1.40;;;;;;;;;;4996150;28;20220;-87
2023/08/18 00:22:59;;;;;;;3.33;1.45;;;;;;;;;;4992709;28;20227;-87
2023/08/18 00:25:24;;;;;;;3.72;1.83;;;;;;;;;;4982595;28;20748;-87
2023/08/18 00:27:52;;;;;;;2.10;1.42;;;;;;;;;;4982079;28;20216;-87
2023/08/18 00:30:18;;;;;;;3.22;1.48;;;;;;;;;;4984355;28;20219;-87
2023/08/18 00:32:44;;;;;;;3.85;1.65;;;;;;;;;;4986502;28;20320;-87
2023/08/18 00:35:09;;;;;;;3.10;1.25;;;;;;;;;;5001497;28;20221;-87
2023/08/18 00:37:39;;;;;;;3.40;1.48;;;;;;;;;;4988231;28;20212;-86
2023/08/18 00:40:06;;;;;;;1.95;1.50;;;;;;;;;;5003745;28;20219;-87
2023/08/18 00:42:33;;;;;;;3.47;1.60;;;;;;;;;;4982003;28;20220;-87
2023/08/18 00:44:59;;;;;;;2.88;1.40;;;;;;;;;;4981601;28;20733;-86
2023/08/18 00:47:29;;;;;;;4.85;1.50;;;;;;;;;;5012335;28;20217;-86
2023/08/18 00:49:57;;;;;;;5.10;1.60;;;;;;;;;;4979509;28;20212;-87
2023/08/18 00:52:24;;;;;;;2.30;1.58;;;;;;;;;;4969934;28;20608;-88
2023/08/18 00:54:49;;;;;;;2.17;1.40;;;;;;;;;;4982256;28;20304;-86
2023/08/18 00:57:18;;;;;;;3.25;1.58;;;;;;;;;;4968349;28;20343;-86
2023/08/18 00:59:43;;;;;;;1.83;1.35;;;;;;;;;;4997233;28;20219;-87
2023/08/18 01:02:10;;;;;;;2.50;1.60;;;;;;;;;;4986390;28;20231;-86
2023/08/18 01:04:35;;;;;;;2.58;1.35;;;;;;;;;;4984352;28;20220;-87
2023/08/18 01:07:01;;;;;;;2.30;1.30;;;;;;;;;;4988673;28;20222;-87
2023/08/18 01:09:27;;;;;;;2.15;1.60;;;;;;;;;;4965850;28;20275;-88
2023/08/18 01:12:14;;;;;;;2.47;1.85;;;;;;;;;;4986253;28;20618;-86
2023/08/18 01:14:55;;;;;;;3.22;1.50;;;;;;;;;;5011347;28;20278;-86
2023/08/18 01:17:30;;;;;;;4.03;1.80;;;;;;;;;;4992053;28;20310;-87
2023/08/18 01:19:55;;;;;;;3.45;1.38;;;;;;;;;;4989334;28;20512;-87
2023/08/18 01:22:21;;;;;;;2.72;1.50;;;;;;;;;;4992342;28;20221;-87
2023/08/18 01:24:46;;;;;;;4.82;1.52;;;;;;;;;;4992460;28;20649;-87
2023/08/18 01:27:15;;;;;;;2.42;1.70;;;;;;;;;;4995208;28;20710;-87
2023/08/18 01:29:41;;;;;;;1.95;1.50;;;;;;;;;;4983605;28;20257;-86
2023/08/18 01:32:09;;;;;;;2.38;1.30;;;;;;;;;;4984710;28;20250;-87
2023/08/18 01:34:39;;;;;;;6.10;1.60;;;;;;;;;;5006222;28;20228;-86
2023/08/18 01:37:14;;;;;;;2.05;1.55;;;;;;;;;;5005396;28;20215;-86
2023/08/18 01:39:40;;;;;;;7.78;1.48;;;;;;;;;;4985001;28;20217;-86
2023/08/18 01:42:08;;;;;;;3.60;1.63;;;;;;;;;;4970153;28;20235;-86
2023/08/18 01:44:33;;;;;;;2.67;1.50;;;;;;;;;;4974500;28;20220;-86
2023/08/18 01:46:59;;;;;;;6.85;1.77;;;;;;;;;;4976281;28;20267;-87
2023/08/18 01:49:24;;;;;;;2.97;1.60;;;;;;;;;;4991977;28;20242;-86
2023/08/18 01:51:50;;;;;;;2.70;1.90;;;;;;;;;;4966829;28;20240;-86
2023/08/18 01:54:16;;;;;;;2.25;1.65;;;;;;;;;;4986915;28;20212;-86
2023/08/18 01:56:41;;;;;;;1.90;1.50;;;;;;;;;;4968177;28;20661;-87
2023/08/18 01:59:13;;;;;;;2.65;1.33;;;;;;;;;;4974513;28;20707;-86
2023/08/18 02:01:38;;;;;;;1.40;1.30;;;;;;;;;;4977532;28;20228;-86
2023/08/18 02:04:04;;;;;;;2.35;1.60;;;;;;;;;;4977682;28;20224;-86
2023/08/18 02:06:32;;;;;;;2.60;1.65;;;;;;;;;;4987103;28;20274;-85
2023/08/18 02:09:00;;;;;;;2.50;1.60;;;;;;;;;;4984403;28;20212;-86
2023/08/18 02:11:25;;;;;;;3.97;1.50;;;;;;;;;;4981283;28;20209;-86
2023/08/18 02:13:52;;;;;;;2.65;1.50;;;;;;;;;;4978708;28;20308;-86
2023/08/18 02:16:17;;;;;;;2.83;1.50;;;;;;;;;;4985998;28;20232;-86
2023/08/18 02:18:47;;;;;;;3.65;1.45;;;;;;;;;;4983316;28;20234;-86
2023/08/18 02:21:14;;;;;;;8.00;1.80;;;;;;;;;;4966055;28;20212;-85
2023/08/18 02:23:40;;;;;;;2.70;1.70;;;;;;;;;;4973223;28;20227;-86
2023/08/18 02:26:06;;;;;;;5.95;1.58;;;;;;;;;;4989088;28;20467;-87
2023/08/18 02:28:32;;;;;;;2.42;1.48;;;;;;;;;;4968963;28;20216;-86
2023/08/18 02:31:02;;;;;;;4.85;1.55;;;;;;;;;;4985385;28;20231;-85
2023/08/18 02:33:31;;;;;;;2.45;1.40;;;;;;;;;;4995809;28;20387;-87
2023/08/18 02:35:59;;;;;;;2.08;1.40;;;;;;;;;;4985313;28;20220;-87
2023/08/18 02:38:25;;;;;;;2.25;1.52;;;;;;;;;;4966240;28;20608;-87
2023/08/18 02:40:52;;;;;;;2.97;1.55;;;;;;;;;;4981021;28;20212;-87
2023/08/18 02:43:21;;;;;;;4.15;1.67;;;;;;;;;;4991624;28;20247;-86
2023/08/18 02:45:47;;;;;;;4.80;1.70;;;;;;;;;;4998415;28;20216;-86
2023/08/18 02:48:15;;;;;;;2.75;1.60;;;;;;;;;;4994818;28;20218;-86
2023/08/18 02:50:41;;;;;;;2.15;1.60;;;;;;;;;;4980135;28;20217;-87
2023/08/18 02:53:09;;;;;;;3.20;1.88;;;;;;;;;;4969195;28;20234;-87
2023/08/18 02:55:34;;;;;;;2.72;1.92;;;;;;;;;;4980371;28;20232;-86
2023/08/18 02:58:03;;;;;;;2.35;1.60;;;;;;;;;;4980937;28;20221;-84
2023/08/18 03:00:29;;;;;;;2.83;1.60;;;;;;;;;;5014659;28;20243;-87
2023/08/18 03:02:56;;;;;;;3.15;2.13;;;;;;;;;;4966892;28;20591;-84
2023/08/18 03:05:31;;;;;;;2.17;1.85;;;;;;;;;;4976145;28;20220;-87
2023/08/18 03:07:56;;;;;;;10.80;1.60;;;;;;;;;;4984809;28;20224;-86
2023/08/18 03:10:22;;;;;;;4.95;1.60;;;;;;;;;;4969346;28;20226;-87
2023/08/18 03:12:48;;;;;;;4.93;1.65;;;;;;;;;;4967528;28;20599;-88
2023/08/18 03:15:13;;;;;;;2.35;1.58;;;;;;;;;;4985124;28;20282;-87
2023/08/18 03:17:39;;;;;;;2.00;1.80;;;;;;;;;;5015745;28;20218;-87
2023/08/18 03:20:07;;;;;;;2.20;1.70;;;;;;;;;;4994265;28;20224;-87
2023/08/18 03:22:34;;;;;;;3.13;2.00;;;;;;;;;;4974849;28;20743;-88
2023/08/18 03:25:00;;;;;;;1.98;1.88;;;;;;;;;;4994817;28;20269;-88
2023/08/18 03:27:26;;;;;;;2.72;1.80;;;;;;;;;;4981056;28;20223;-89
2023/08/18 03:29:51;;;;;;;3.30;2.00;;;;;;;;;;4976382;28;20220;-89
2023/08/18 03:32:17;;;;;;;3.83;2.20;;;;;;;;;;4978488;28;20283;-87
2023/08/18 03:34:43;;;;;;;3.90;2.03;;;;;;;;;;5001476;28;20284;-89
2023/08/18 03:37:13;;;;;;;4.30;2.08;;;;;;;;;;4994690;28;20265;-88
2023/08/18 03:39:42;;;;;;;4.15;2.10;;;;;;;;;;4989508;28;20223;-89
2023/08/18 03:42:07;;;;;;;4.45;2.30;;;;;;;;;;4966275;28;20605;-87
2023/08/18 03:44:35;;;;;;;6.13;2.35;;;;;;;;;;4978916;28;20232;-87
2023/08/18 03:47:01;;;;;;;2.78;2.35;;;;;;;;;;4986388;28;20223;-88
2023/08/18 03:49:29;;;;;;;2.65;2.20;;;;;;;;;;4965694;28;20342;-89
2023/08/18 03:51:56;;;;;;;3.35;2.40;;;;;;;;;;4992580;28;20230;-88
2023/08/18 03:54:21;;;;;;;5.28;2.50;;;;;;;;;;4977096;28;20223;-88
2023/08/18 03:56:50;;;;;;;10.15;2.47;;;;;;;;;;4961174;28;20223;-89
2023/08/18 03:59:16;;;;;;;4.40;2.63;;;;;;;;;;4960788;28;20211;-90
2023/08/18 04:05:28;;;;;;;3.28;2.67;;;;;;;;;;5039371;28;20709;-89
2023/08/18 04:07:56;;;;;;;3.03;2.72;;;;;;;;;;4992490;28;20223;-88
2023/08/18 04:10:22;;;;;;;5.53;3.20;;;;;;;;;;4985554;28;20224;-87
2023/08/18 04:12:50;;;;;;;4.72;2.67;;;;;;;;;;4971718;28;20220;-88
2023/08/18 04:15:18;;;;;;;7.72;3.20;;;;;;;;;;4993914;28;20213;-89
2023/08/18 04:17:48;;;;;;;3.00;2.70;;;;;;;;;;4985204;28;20211;-88
2023/08/18 04:20:13;;;;;;;5.32;2.80;;;;;;;;;;4991379;28;20236;-89
2023/08/18 04:22:40;;;;;;;7.15;3.03;;;;;;;;;;5000996;28;20229;-90
2023/08/18 04:25:06;;;;;;;3.58;2.60;;;;;;;;;;4991623;28;20594;-89
2023/08/18 04:27:33;;;;;;;4.03;3.10;;;;;;;;;;4998073;28;20219;-88
2023/08/18 04:29:59;;;;;;;4.65;3.05;;;;;;;;;;4999171;28;20220;-89
2023/08/18 04:32:26;;;;;;;5.45;3.20;;;;;;;;;;4984446;28;20220;-89
2023/08/18 04:34:51;;;;;;;5.50;3.83;;;;;;;;;;4984882;28;20230;-87
2023/08/18 04:37:17;;;;;;;5.03;3.17;;;;;;;;;;4987693;28;20223;-88
2023/08/18 04:39:45;;;;;;;5.15;3.53;;;;;;;;;;4974088;28;20220;-89
2023/08/18 04:42:14;;;;;;;4.03;3.22;;;;;;;;;;4988990;28;20601;-88
2023/08/18 04:44:43;;;;;;;6.88;4.03;;;;;;;;;;4978010;28;20231;-90
2023/08/18 04:47:10;;;;;;;7.00;4.35;;;;;;;;;;4987866;28;20227;-89
2023/08/18 04:49:38;;;;;;;5.40;4.20;;;;;;;;;;4994266;28;20216;-87
2023/08/18 04:52:07;;;;;;;5.00;4.50;;;;;;;;;;4991694;28;20220;-88
2023/08/18 04:54:33;;;;;;;6.22;4.93;;;;;;;;;;4975335;28;20326;-87
2023/08/18 04:56:59;;;;;;;7.65;5.10;;;;;;;;;;4985820;28;20704;-89
2023/08/18 04:59:26;;;;;;;5.72;5.22;;;;;;;;;;4988320;28;20221;-87
2023/08/18 05:01:55;;;;;;;6.32;4.95;;;;;;;;;;4972006;28;20227;-87
2023/08/18 05:04:23;;;;;;;6.70;6.15;;;;;;;;;;4975803;28;20227;-88
2023/08/18 05:06:49;;;;;;;6.57;5.80;;;;;;;;;;4988562;28;20220;-88
2023/08/18 05:09:17;;;;;;;7.20;5.30;;;;;;;;;;4975601;28;20203;-88
2023/08/18 05:11:47;;;;;;;9.27;6.30;;;;;;;;;;4987734;28;20231;-88
2023/08/18 05:14:13;;;;;;;7.00;6.40;;;;;;;;;;4985962;28;20316;-86
2023/08/18 05:16:38;;;;;;;6.45;5.85;;;;;;;;;;4982066;28;20694;-87
2023/08/18 05:19:04;;;;;;;7.10;6.47;;;;;;;;;;5017349;28;20223;-88
2023/08/18 05:21:30;;;;;;;6.55;6.05;;;;;;;;;;5007698;28;20217;-88
2023/08/18 05:23:55;;;;;;;7.28;6.53;;;;;;;;;;4996924;28;20225;-88
2023/08/18 05:26:21;;;;;;;6.35;5.75;;;;;;;;;;4965877;28;20228;-87
2023/08/18 05:28:49;;;;;;;6.25;5.68;;;;;;;;;;4990614;28;20543;-88
2023/08/18 05:31:15;;;;;;;7.68;6.68;;;;;;;;;;4987242;28;20227;-89
2023/08/18 05:33:43;;;;;;;6.13;5.63;;;;;;;;;;4974730;28;20224;-89
2023/08/18 05:36:11;;;;;;;7.18;5.50;;;;;;;;;;4979841;28;20299;-87
2023/08/18 05:38:36;;;;;;;6.07;5.47;;;;;;;;;;5008430;28;20645;-87
2023/08/18 05:41:06;;;;;;;6.28;5.68;;;;;;;;;;5003609;28;20235;-88
2023/08/18 05:43:35;;;;;;;7.03;6.38;;;;;;;;;;5021689;28;20208;-87
2023/08/18 05:46:01;;;;;;;6.63;6.03;;;;;;;;;;5008063;28;20227;-88
2023/08/18 05:48:26;;;;;;;6.32;5.72;;;;;;;;;;5006820;28;20234;-88
2023/08/18 05:50:52;;;;;;;6.10;5.60;;;;;;;;;;4995048;28;20248;-88
2023/08/18 05:53:18;;;;;;;7.70;5.88;;;;;;;;;;5015506;28;20216;-89
2023/08/18 05:55:46;;;;;;;5.88;5.35;;;;;;;;;;4984546;28;20221;-88
2023/08/18 05:58:12;;;;;;;5.57;5.07;;;;;;;;;;5006294;28;20215;-89
2023/08/18 06:00:38;;;;;;;5.93;5.05;;;;;;;;;;5009199;28;20258;-90
2023/08/18 06:03:06;;;;;;;5.63;5.13;;;;;;;;;;5007129;28;20293;-86
2023/08/18 06:05:33;;;;;;;6.68;5.50;;;;;;;;;;4994069;28;20228;-88
2023/08/18 06:07:59;;;;;;;5.53;4.63;;;;;;;;;;5004844;28;20703;-88
2023/08/18 06:10:25;;;;;;;5.72;5.22;;;;;;;;;;5000158;28;20220;-88
2023/08/18 06:12:50;;;;;;;5.10;4.45;;;;;;;;;;4970886;28;20228;-86
2023/08/18 06:15:17;;;;;;;5.05;4.57;;;;;;;;;;4986681;28;20219;-87
2023/08/18 06:17:42;;;;;;;5.32;4.03;;;;;;;;;;4987201;28;20301;-88
2023/08/18 06:20:10;;;;;;;4.50;4.20;;;;;;;;;;4976939;28;20216;-88
2023/08/18 06:22:38;;;;;;;8.02;4.18;;;;;;;;;;4967950;28;20232;-88
2023/08/18 06:25:08;;;;;;;5.03;4.63;;;;;;;;;;4969306;28;20224;-88
2023/08/18 06:27:36;;;;;;;4.53;4.22;;;;;;;;;;4987279;28;20311;-88
2023/08/18 06:30:02;;;;;;;5.07;4.53;;;;;;;;;;4970889;28;20290;-87
2023/08/18 06:32:27;;;;;;;5.65;4.68;;;;;;;;;;4982819;28;21601;-88
2023/08/18 06:34:53;;;;;;;4.80;4.38;;;;;;;;;;4971667;28;20227;-90
2023/08/18 06:37:19;;;;;;;5.10;4.70;;;;;;;;;;4993388;28;20216;-88
2023/08/18 06:39:45;;;;;;;5.25;4.72;;;;;;;;;;4987852;28;20303;-87
2023/08/18 06:42:14;;;;;;;4.90;4.50;;;;;;;;;;4971718;28;20708;-86
2023/08/18 06:44:39;;;;;;;5.60;4.40;;;;;;;;;;4981494;28;20223;-87
2023/08/18 06:47:06;;;;;;;5.88;5.28;;;;;;;;;;4965753;28;20303;-88
2023/08/18 06:49:34;;;;;;;6.15;5.60;;;;;;;;;;4991282;28;20224;-86
2023/08/18 06:51:59;;;;;;;6.15;5.05;;;;;;;;;;4972187;28;20234;-87
2023/08/18 06:54:27;;;;;;;5.20;4.75;;;;;;;;;;4986915;28;20225;-87
2023/08/18 06:56:53;;;;;;;5.50;5.00;;;;;;;;;;5011459;28;20244;-87
2023/08/18 06:59:18;;;;;;;4.65;4.28;;;;;;;;;;4966551;28;20294;-87
2023/08/18 07:01:46;;;;;;;5.07;4.60;;;;;;;;;;4978597;28;20219;-87
2023/08/18 07:04:17;;;;;;;5.10;4.60;;;;;;;;;;4979667;28;20224;-87
2023/08/18 07:06:44;;;;;;;4.65;4.30;;;;;;;;;;4966945;28;20224;-89
2023/08/18 07:09:09;;;;;;;4.38;4.00;;;;;;;;;;4983586;28;20618;-87
2023/08/18 07:11:38;;;;;;;4.88;3.92;;;;;;;;;;4968543;28;20231;-88
2023/08/18 07:14:06;;;;;;;5.10;4.53;;;;;;;;;;4967000;28;20213;-87
2023/08/18 07:16:32;;;;;;;4.30;3.97;;;;;;;;;;4983985;28;20220;-88
2023/08/18 07:19:00;;;;;;;4.40;3.80;;;;;;;;;;4984644;28;20216;-87
2023/08/18 07:21:27;;;;;;;7.88;4.07;;;;;;;;;;4986638;28;20228;-87
2023/08/18 07:24:13;;;;;;;5.22;4.25;;;;;;;;;;5012372;28;20219;-86
2023/08/18 07:26:38;;;;;;;7.07;4.30;;;;;;;;;;5026740;28;20223;-87
2023/08/18 07:29:09;;;;;;;4.72;4.30;;;;;;;;;;4994555;28;20270;-85
2023/08/18 07:31:37;;;;;;;4.65;4.13;;;;;;;;;;5006039;28;20224;-87
2023/08/18 07:34:03;;;;;;;4.18;3.88;;;;;;;;;;4979992;28;20215;-87
2023/08/18 07:36:29;;;;;;;4.43;4.10;;;;;;;;;;4989818;28;20714;-85
2023/08/18 07:38:56;;;;;;;5.05;4.65;;;;;;;;;;4986143;28;20582;-88
2023/08/18 07:41:24;;;;;;;5.22;4.72;;;;;;;;;;4982341;28;20224;-87
2023/08/18 07:43:50;;;;;;;4.55;4.18;;;;;;;;;;4978425;28;20244;-88
2023/08/18 07:46:18;;;;;;;5.05;4.65;;;;;;;;;;4981523;28;20224;-86
2023/08/18 07:48:44;;;;;;;4.82;4.15;;;;;;;;;;4986459;28;20295;-88
2023/08/18 07:51:12;;;;;;;4.22;3.90;;;;;;;;;;4982194;28;20231;-86
2023/08/18 07:53:40;;;;;;;4.85;4.05;;;;;;;;;;4997549;28;20224;-85
2023/08/18 07:56:06;;;;;;;4.05;3.75;;;;;;;;;;4981665;28;20232;-85
2023/08/18 07:58:31;;;;;;;4.15;3.75;;;;;;;;;;4983037;28;20238;-86
2023/08/18 08:00:59;;;;;;;3.83;3.53;;;;;;;;;;4990650;28;20216;-86
2023/08/18 08:03:27;;;;;;;5.20;4.22;;;;;;;;;;4984080;28;20223;-86
2023/08/18 08:05:55;;;;;;;4.13;3.83;;;;;;;;;;4970842;28;20636;-84
2023/08/18 08:08:22;;;;;;;5.43;3.40;;;;;;;;;;4984619;28;20232;-85
2023/08/18 08:10:48;;;;;;;3.90;3.60;;;;;;;;;;4981082;28;20216;-86
2023/08/18 08:13:16;;;;;;;4.97;3.80;;;;;;;;;;4981162;28;20231;-86
2023/08/18 08:15:45;;;;;;;4.75;4.25;;;;;;;;;;4973164;28;20212;-85
2023/08/18 08:18:18;;;;;;;6.88;4.05;;;;;;;;;;4965076;28;20326;-86
2023/08/18 08:20:43;;;;;;;5.28;4.28;;;;;;;;;;4982860;28;20655;-85
2023/08/18 08:23:12;;;;;;;5.40;4.60;;;;;;;;;;4969549;28;20215;-85
2023/08/18 08:25:38;;;;;;;5.47;4.55;;;;;;;;;;4985529;28;20212;-84
2023/08/18 08:28:06;;;;;;;4.57;4.28;;;;;;;;;;4983662;28;20270;-84
2023/08/18 08:30:34;;;;;;;4.93;4.43;;;;;;;;;;4984040;28;20227;-84
2023/08/18 08:33:00;;;;;;;4.18;3.85;;;;;;;;;;4999172;28;20216;-86
2023/08/18 08:35:28;;;;;;;7.70;4.30;;;;;;;;;;4983932;28;20215;-85
2023/08/18 08:37:56;;;;;;;4.22;3.80;;;;;;;;;;4969399;28;20212;-84
2023/08/18 08:40:21;;;;;;;8.27;4.22;;;;;;;;;;4965404;28;20221;-84
2023/08/18 08:42:53;;;;;;;4.28;3.97;;;;;;;;;;4982435;28;20224;-84
2023/08/18 08:45:19;;;;;;;4.53;4.18;;;;;;;;;;4968477;28;20216;-83
2023/08/18 08:47:45;;;;;;;4.35;4.00;;;;;;;;;;4966361;28;20212;-84
2023/08/18 08:50:11;;;;;;;5.53;3.28;;;;;;;;;;4990909;28;20220;-85
2023/08/18 08:52:38;;;;;;;4.72;4.32;;;;;;;;;;5022219;28;20219;-86
2023/08/18 08:55:06;;;;;;;4.72;4.22;;;;;;;;;;4970705;28;20293;-85
2023/08/18 08:57:31;;;;;;;4.50;4.15;;;;;;;;;;4981447;28;20224;-86
2023/08/18 08:59:57;;;;;;;5.70;5.07;;;;;;;;;;4994989;28;20286;-87
2023/08/18 09:02:25;;;;;;;4.35;3.95;;;;;;;;;;4986191;28;20228;-84
2023/08/18 09:04:51;;;;;;;4.35;3.95;;;;;;;;;;4986554;28;20229;-87
2023/08/18 09:07:17;;;;;;;4.53;4.13;;;;;;;;;;4986746;28;20221;-86
2023/08/18 09:09:45;;;;;;;4.43;4.03;;;;;;;;;;4979346;28;20238;-85
2023/08/18 09:12:13;;;;;;;7.65;4.60;;;;;;;;;;4988394;28;20208;-85
2023/08/18 09:14:40;;;;;;;4.97;4.45;;;;;;;;;;5000726;28;20220;-83
2023/08/18 09:17:07;;;;;;;4.85;4.45;;;;;;;;;;4985183;28;20676;-85
2023/08/18 09:19:33;;;;;;;5.45;4.95;;;;;;;;;;5014425;28;20246;-85
2023/08/18 09:22:00;;;;;;;4.82;4.38;;;;;;;;;;4986232;28;20315;-85
2023/08/18 09:24:26;;;;;;;6.68;5.15;;;;;;;;;;4982549;28;20220;-86
2023/08/18 09:26:52;;;;;;;4.65;4.25;;;;;;;;;;4987131;28;20227;-85
2023/08/18 09:29:18;;;;;;;4.10;3.80;;;;;;;;;;4970760;28;20221;-86
2023/08/18 09:31:46;;;;;;;7.15;5.07;;;;;;;;;;5002969;28;20230;-79
2023/08/18 09:34:19;;;;;;;4.43;4.07;;;;;;;;;;4960202;28;20212;-79
2023/08/18 09:36:51;;;;;;;6.05;5.45;;;;;;;;;;5012945;28;20228;-77
2023/08/18 09:39:17;;;;;;;5.07;4.63;;;;;;;;;;4966458;28;20701;-77
2023/08/18 09:41:49;;;;;;;5.65;5.15;;;;;;;;;;4990044;28;20227;-78
2023/08/18 09:44:15;;;;;;;5.25;4.85;;;;;;;;;;5013110;28;20359;-79
2023/08/18 09:46:47;;;;;;;9.05;4.93;;;;;;;;;;5005795;28;20218;-79
2023/08/18 09:49:15;;;;;;;6.25;5.40;;;;;;;;;;4983048;28;20216;-78
2023/08/18 09:51:43;;;;;;;6.55;5.95;;;;;;;;;;4983844;28;20259;-76
2023/08/18 09:54:08;;;;;;;6.88;6.15;;;;;;;;;;4996958;28;20263;-77
2023/08/18 09:56:35;;;;;;;6.45;5.00;;;;;;;;;;4955733;28;20212;-76
2023/08/18 09:59:13;;;;;;;5.55;5.05;;;;;;;;;;4989914;28;20224;-77
2023/08/18 10:01:39;;;;;;;6.38;4.68;;;;;;;;;;5000108;28;20231;-78
2023/08/18 10:04:05;;;;;;;4.63;4.22;;;;;;;;;;4993080;28;20228;-78
2023/08/18 10:06:31;;;;;;;5.55;4.45;;;;;;;;;;4978854;28;20251;-79
2023/08/18 10:08:56;;;;;;;4.05;3.70;;;;;;;;;;5010362;28;20223;-77
2023/08/18 10:11:22;;;;;;;5.13;4.40;;;;;;;;;;5012189;28;20262;-78
2023/08/18 10:13:47;;;;;;;5.53;5.13;;;;;;;;;;4973570;28;20224;-77
2023/08/18 10:16:16;;;;;;;6.78;4.18;;;;;;;;;;4994853;28;20614;-78
2023/08/18 10:18:42;;;;;;;5.22;4.40;;;;;;;;;;5006360;28;20524;-77
2023/08/18 10:21:10;;;;;;;5.18;4.78;;;;;;;;;;5021132;28;20220;-78
2023/08/18 10:23:39;;;;;;;7.40;4.97;;;;;;;;;;4992215;28;20204;-78
2023/08/18 10:26:05;;;;;;;6.47;5.15;;;;;;;;;;5001558;28;20228;-78
2023/08/18 10:28:32;;;;;;;5.38;4.50;;;;;;;;;;5002862;28;20212;-78
2023/08/18 10:31:00;;;;;;;5.03;4.63;;;;;;;;;;4998070;28;20947;-78
2023/08/18 10:33:35;;;;;;;5.30;4.72;;;;;;;;;;4979662;28;20223;-77
2023/08/18 10:36:04;;;;;;;4.30;3.90;;;;;;;;;;4954685;28;20578;-76
2023/08/18 10:38:39;;;;;;;4.60;3.83;;;;;;;;;;4975299;28;20691;-77
2023/08/18 10:41:04;;;;;;;3.70;3.40;;;;;;;;;;4980807;28;20267;-79
2023/08/18 10:43:30;;;;;;;4.07;3.67;;;;;;;;;;4997754;28;20240;-78
2023/08/18 10:45:59;;;;;;;4.05;3.75;;;;;;;;;;4998799;28;20212;-77
2023/08/18 10:48:36;;;;;;;4.43;4.03;;;;;;;;;;4980693;28;20220;-76
2023/08/18 10:51:02;;;;;;;5.47;3.67;;;;;;;;;;4988704;28;20298;-78
2023/08/18 10:53:36;;;;;;;4.15;3.85;;;;;;;;;;4997061;28;20564;-79
2023/08/18 10:56:03;;;;;;;4.32;3.83;;;;;;;;;;4984227;28;20220;-78
2023/08/18 10:58:31;;;;;;;4.47;3.55;;;;;;;;;;4997127;28;20227;-78
2023/08/18 11:00:57;;;;;;;3.47;3.22;;;;;;;;;;4955280;28;20232;-77
2023/08/18 11:03:24;;;;;;;3.65;3.35;;;;;;;;;;4980048;28;20232;-79
2023/08/18 11:05:52;;;;;;;4.85;4.03;;;;;;;;;;5014171;28;20254;-77
2023/08/18 11:08:18;;;;;;;4.47;4.07;;;;;;;;;;4995174;28;20228;-77
2023/08/18 11:10:46;;;;;;;4.30;3.90;;;;;;;;;;4983661;28;20222;-77
2023/08/18 11:13:23;;;;;;;4.38;3.92;;;;;;;;;;5015764;28;20220;-78
2023/08/18 11:15:50;;;;;;;5.07;4.55;;;;;;;;;;5000073;28;20223;-78
2023/08/18 11:18:19;;;;;;;5.35;4.85;;;;;;;;;;4982601;28;20228;-77
2023/08/18 11:20:52;;;;;;;4.13;3.83;;;;;;;;;;4990303;28;20723;-76
2023/08/18 11:23:20;;;;;;;4.32;3.90;;;;;;;;;;4982348;28;20285;-76
2023/08/18 11:25:46;;;;;;;4.40;4.00;;;;;;;;;;5000557;28;20212;-78
2023/08/18 11:28:14;;;;;;;4.57;4.20;;;;;;;;;;4996218;28;20239;-78
2023/08/18 11:30:39;;;;;;;4.13;3.83;;;;;;;;;;4981400;28;20684;-77
2023/08/18 11:33:05;;;;;;;4.13;3.70;;;;;;;;;;4997157;28;20647;-79
2023/08/18 11:35:32;;;;;;;3.95;3.70;;;;;;;;;;5017631;28;20224;-76
2023/08/18 11:37:59;;;;;;;4.35;3.95;;;;;;;;;;5015129;28;20224;-77
2023/08/18 11:40:25;;;;;;;5.10;3.83;;;;;;;;;;5015282;28;20299;-77
2023/08/18 11:42:52;;;;;;;4.03;3.65;;;;;;;;;;4963196;28;20303;-77
2023/08/18 11:45:21;;;;;;;4.38;4.07;;;;;;;;;;4980668;28;20212;-79
2023/08/18 11:48:01;;;;;;;4.43;4.13;;;;;;;;;;4995130;28;20216;-80
2023/08/18 11:50:33;;;;;;;4.82;4.38;;;;;;;;;;4998096;28;20220;-80
2023/08/18 11:52:58;;;;;;;5.05;4.00;;;;;;;;;;4986383;28;20224;-81
2023/08/18 11:55:34;;;;;;;4.55;4.13;;;;;;;;;;4980860;28;20220;-81
2023/08/18 11:58:14;;;;;;;5.35;3.97;;;;;;;;;;5004486;28;20211;-82
2023/08/18 12:00:43;;;;;;;9.10;4.22;;;;;;;;;;5016259;28;20222;-78
2023/08/18 12:03:27;;;;;;;4.53;3.80;;;;;;;;;;4995181;28;20937;-79
2023/08/18 12:05:56;;;;;;;4.63;4.32;;;;;;;;;;4982614;28;20219;-78
2023/08/18 12:08:24;;;;;;;4.80;4.47;;;;;;;;;;5012475;28;20216;-81
2023/08/18 12:10:53;;;;;;;4.80;4.30;;;;;;;;;;5040097;28;20417;-79
2023/08/18 12:13:20;;;;;;;4.28;3.97;;;;;;;;;;5002434;28;20779;-78
2023/08/18 12:15:45;;;;;;;4.60;4.20;;;;;;;;;;5029999;28;20257;-78
2023/08/18 12:18:16;;;;;;;4.97;4.45;;;;;;;;;;4983149;28;20310;-77
2023/08/18 12:20:42;;;;;;;4.70;4.30;;;;;;;;;;5007034;28;20753;-79
2023/08/18 12:23:07;;;;;;;4.95;4.20;;;;;;;;;;4976925;28;20247;-79
2023/08/18 12:25:33;;;;;;;4.07;3.78;;;;;;;;;;4999784;28;20228;-79
2023/08/18 12:27:58;;;;;;;4.70;3.83;;;;;;;;;;5008944;28;20219;-79
2023/08/18 12:30:25;;;;;;;4.72;4.15;;;;;;;;;;4991306;28;20223;-78
2023/08/18 12:32:54;;;;;;;4.25;3.90;;;;;;;;;;5007695;28;20220;-78
2023/08/18 12:35:20;;;;;;;4.43;4.03;;;;;;;;;;5039774;28;20285;-81
2023/08/18 12:37:51;;;;;;;3.97;3.67;;;;;;;;;;4976702;28;20224;-78
2023/08/18 12:40:19;;;;;;;4.18;3.88;;;;;;;;;;5007067;28;20212;-79
2023/08/18 12:42:44;;;;;;;5.30;4.20;;;;;;;;;;5038815;28;20220;-80
2023/08/18 12:45:10;;;;;;;5.55;4.00;;;;;;;;;;5002425;28;20256;-81
2023/08/18 12:47:35;;;;;;;4.07;3.75;;;;;;;;;;4994531;28;20273;-80
2023/08/18 12:50:02;;;;;;;3.85;3.55;;;;;;;;;;4981572;28;20220;-79
2023/08/18 12:52:30;;;;;;;4.78;4.10;;;;;;;;;;5001894;28;20243;-80
2023/08/18 12:54:55;;;;;;;5.57;4.20;;;;;;;;;;5011470;28;20995;-81
2023/08/18 12:57:21;;;;;;;4.20;3.80;;;;;;;;;;5003359;28;20228;-80
2023/08/18 12:59:46;;;;;;;4.18;3.88;;;;;;;;;;5023290;28;20220;-80
2023/08/18 13:02:12;;;;;;;4.20;3.90;;;;;;;;;;5003343;28;20212;-80
2023/08/18 13:04:37;;;;;;;4.30;3.90;;;;;;;;;;5008839;28;20287;-79
2023/08/18 13:07:03;;;;;;;5.68;4.07;;;;;;;;;;5023201;28;20223;-80
2023/08/18 13:09:29;;;;;;;4.63;4.22;;;;;;;;;;5025742;28;20226;-79
2023/08/18 13:12:06;;;;;;;4.30;3.97;;;;;;;;;;4988968;28;20240;-80
2023/08/18 13:14:35;;;;;;;3.85;3.55;;;;;;;;;;4984350;28;20323;-79
2023/08/18 13:17:01;;;;;;;3.80;3.50;;;;;;;;;;5014251;28;20893;-78
2023/08/18 13:19:30;;;;;;;3.83;3.53;;;;;;;;;;5006682;28;20286;-79
2023/08/18 13:21:56;;;;;;;4.68;4.28;;;;;;;;;;4977524;28;20220;-78
2023/08/18 13:24:25;;;;;;;4.22;3.80;;;;;;;;;;4981441;28;20243;-79
2023/08/18 13:27:18;;;;;;;5.35;3.92;;;;;;;;;;5003473;28;20219;-79
2023/08/18 13:29:46;;;;;;;4.55;3.83;;;;;;;;;;5000538;28;20223;-77
2023/08/18 13:32:14;;;;;;;4.90;3.95;;;;;;;;;;5017928;28;20243;-76
2023/08/18 13:34:40;;;;;;;4.20;3.80;;;;;;;;;;5008865;28;20220;-79
2023/08/18 13:37:05;;;;;;;4.15;3.78;;;;;;;;;;5015077;28;20262;-80
2023/08/18 13:39:31;;;;;;;3.92;3.63;;;;;;;;;;4983330;28;20616;-79
2023/08/18 13:41:56;;;;;;;4.72;4.18;;;;;;;;;;5005283;28;20224;-79
2023/08/18 13:44:24;;;;;;;4.93;3.50;;;;;;;;;;5007156;28;20224;-77
2023/08/18 13:46:54;;;;;;;3.50;3.30;;;;;;;;;;5013761;28;20258;-78
2023/08/18 13:49:27;;;;;;;4.20;3.90;;;;;;;;;;4998345;28;20228;-79
2023/08/18 13:51:53;;;;;;;3.45;3.15;;;;;;;;;;4997624;28;20269;-76
2023/08/18 13:54:18;;;;;;;4.25;3.85;;;;;;;;;;4998619;28;20645;-77
2023/08/18 13:56:46;;;;;;;5.10;3.78;;;;;;;;;;4983443;28;20279;-78
2023/08/18 13:59:15;;;;;;;4.07;3.67;;;;;;;;;;5003398;28;20279;-77
2023/08/18 14:01:40;;;;;;;4.35;3.97;;;;;;;;;;4996302;28;20220;-78
2023/08/18 14:04:09;;;;;;;4.28;3.88;;;;;;;;;;4993413;28;20227;-77
2023/08/18 14:06:34;;;;;;;4.57;4.28;;;;;;;;;;5011944;28;20579;-77
2023/08/18 14:09:03;;;;;;;4.28;3.95;;;;;;;;;;4998316;28;20223;-77
2023/08/18 14:11:28;;;;;;;4.68;4.28;;;;;;;;;;4978251;28;20230;-76
2023/08/18 14:13:56;;;;;;;4.28;3.97;;;;;;;;;;4993070;28;20667;-78
2023/08/18 14:16:25;;;;;;;4.38;3.97;;;;;;;;;;5026007;28;20223;-76
2023/08/18 14:18:53;;;;;;;5.18;4.30;;;;;;;;;;4990928;28;20227;-77
2023/08/18 14:21:24;;;;;;;4.30;4.00;;;;;;;;;;4969980;28;20208;-77
2023/08/18 14:23:49;;;;;;;6.32;4.72;;;;;;;;;;5028044;28;20235;-78
2023/08/18 14:26:20;;;;;;;5.10;3.85;;;;;;;;;;4979144;28;20584;-79
2023/08/18 14:28:46;;;;;;;4.40;4.00;;;;;;;;;;4979296;28;20243;-77
2023/08/18 14:31:14;;;;;;;4.50;4.10;;;;;;;;;;5011793;28;20666;-77
2023/08/18 14:33:42;;;;;;;4.40;4.00;;;;;;;;;;5005079;28;20224;-76
2023/08/18 14:36:13;;;;;;;4.15;3.83;;;;;;;;;;5009903;28;20220;-77
2023/08/18 14:38:41;;;;;;;4.75;4.30;;;;;;;;;;5011564;28;20228;-77
2023/08/18 14:41:10;;;;;;;4.05;3.75;;;;;;;;;;5013875;28;20891;-78
2023/08/18 14:43:36;;;;;;;4.35;3.90;;;;;;;;;;4971281;28;20224;-77
2023/08/18 14:46:04;;;;;;;4.60;4.20;;;;;;;;;;5030748;28;20715;-78
2023/08/18 14:48:29;;;;;;;4.32;3.72;;;;;;;;;;5001748;28;20224;-78